createdAt,value
2022-08-11T00:01:53.195Z,19.89
2022-08-11T00:04:23.729Z,19.87
2022-08-11T00:06:51.944Z,19.85
2022-08-11T00:09:21.408Z,19.81
2022-08-11T00:11:53.947Z,19.83
2022-08-11T00:14:36.040Z,19.80
2022-08-11T00:17:13.508Z,19.74
2022-08-11T00:20:14.997Z,19.68
2022-08-11T00:22:39.759Z,19.61
2022-08-11T00:25:12.800Z,19.57
2022-08-11T00:27:41.140Z,19.52
2022-08-11T00:30:10.161Z,19.49
2022-08-11T00:32:46.224Z,19.44
2022-08-11T00:35:53.703Z,19.35
2022-08-11T00:38:05.559Z,19.28
2022-08-11T00:40:45.074Z,19.25
2022-08-11T00:43:57.746Z,19.20
2022-08-11T00:46:27.126Z,19.14
2022-08-11T00:49:04.848Z,19.08
2022-08-11T00:52:04.270Z,19.03
2022-08-11T00:55:00.552Z,18.98
2022-08-11T00:57:58.421Z,18.90
2022-08-11T01:00:32.306Z,18.80
2022-08-11T01:03:19.624Z,18.71
2022-08-11T01:05:57.701Z,18.65
2022-08-11T01:08:59.034Z,18.57
2022-08-11T01:12:01.684Z,18.48
2022-08-11T01:15:16.451Z,18.43
2022-08-11T01:18:18.815Z,18.37
2022-08-11T01:21:10.265Z,18.30
2022-08-11T01:24:05.250Z,18.26
2022-08-11T01:26:43.854Z,18.20
2022-08-11T01:29:32.363Z,18.17
2022-08-11T01:32:21.678Z,18.16
2022-08-11T01:35:23.993Z,18.12
2022-08-11T01:38:12.195Z,18.17
2022-08-11T01:41:22.827Z,18.13
2022-08-11T01:44:37.315Z,18.10
2022-08-11T01:47:52.591Z,18.07
2022-08-11T01:50:46.461Z,18.06
2022-08-11T01:53:25.175Z,18.00
2022-08-11T01:56:30.650Z,18.00
2022-08-11T01:59:14.178Z,17.99
2022-08-11T02:01:40.817Z,17.98
2022-08-11T02:04:29.980Z,17.94
2022-08-11T02:07:15.370Z,17.94
2022-08-11T02:10:35.314Z,17.88
2022-08-11T02:13:15.917Z,17.89
2022-08-11T02:15:55.926Z,17.86
2022-08-11T02:19:05.394Z,17.84
2022-08-11T02:22:02.443Z,17.81
2022-08-11T02:24:44.099Z,17.78
2022-08-11T02:27:23.323Z,17.76
2022-08-11T02:30:05.223Z,17.76
2022-08-11T02:33:06.249Z,17.70
2022-08-11T02:35:42.588Z,17.65
2022-08-11T02:38:28.059Z,17.64
2022-08-11T02:41:40.009Z,17.64
2022-08-11T02:44:28.433Z,17.61
2022-08-11T02:47:23.948Z,17.56
2022-08-11T02:50:07.191Z,17.51
2022-08-11T02:52:46.332Z,17.48
2022-08-11T02:55:55.780Z,17.40
2022-08-11T02:58:38.624Z,17.35
2022-08-11T03:01:20.223Z,17.33
2022-08-11T03:04:05.852Z,17.27
2022-08-11T03:06:38.175Z,17.24
2022-08-11T03:09:24.971Z,17.17
2022-08-11T03:12:19.552Z,17.16
2022-08-11T03:15:31.870Z,17.15
2022-08-11T03:18:25.108Z,17.15
2022-08-11T03:21:20.863Z,17.09
2022-08-11T03:24:03.646Z,17.07
2022-08-11T03:26:54.058Z,17.03
2022-08-11T03:29:31.454Z,16.99
2022-08-11T03:32:29.946Z,16.99
2022-08-11T03:35:01.455Z,16.89
2022-08-11T03:37:51.028Z,16.78
2022-08-11T03:40:55.949Z,16.76
2022-08-11T03:43:50.118Z,16.76
2022-08-11T03:46:38.320Z,16.70
2022-08-11T03:49:34.961Z,16.70
2022-08-11T03:52:04.806Z,16.66
2022-08-11T03:54:34.393Z,16.62
2022-08-11T03:57:28.612Z,16.58
2022-08-11T04:00:11.368Z,16.52
2022-08-11T04:03:03.670Z,16.49
2022-08-11T04:06:09.387Z,16.49
2022-08-11T04:08:47.996Z,16.45
2022-08-11T04:11:32.367Z,16.39
2022-08-11T04:14:42.528Z,16.36
2022-08-11T04:17:36.989Z,16.37
2022-08-11T04:20:30.419Z,16.35
2022-08-11T04:24:35.947Z,16.26
2022-08-11T04:26:57.373Z,16.26
2022-08-11T04:30:03.286Z,16.29
2022-08-11T04:33:02.850Z,16.32
2022-08-11T04:35:34.429Z,16.37
2022-08-11T04:38:44.524Z,16.41
2022-08-11T04:42:05.287Z,16.46
2022-08-11T04:45:12.297Z,16.53
2022-08-11T04:48:19.490Z,16.60
2022-08-11T04:51:29.293Z,16.63
2022-08-11T04:54:50.684Z,16.66
2022-08-11T04:57:58.827Z,16.65
2022-08-11T05:00:49.589Z,16.67
2022-08-11T05:03:56.825Z,16.71
2022-08-11T05:06:44.647Z,16.81
2022-08-11T05:09:26.073Z,18.25
2022-08-11T05:12:14.493Z,20.55
2022-08-11T05:15:13.419Z,22.10
2022-08-11T05:18:04.715Z,23.07
2022-08-11T05:21:04.334Z,23.79
2022-08-11T05:23:57.362Z,24.20
2022-08-11T05:26:48.866Z,24.47
2022-08-11T05:30:06.643Z,25.17
2022-08-11T05:33:02.348Z,25.21
2022-08-11T05:36:00.312Z,25.32
2022-08-11T05:38:49.947Z,25.25
2022-08-11T05:41:41.880Z,25.08
2022-08-11T05:44:29.363Z,25.44
2022-08-11T05:47:16.027Z,25.49
2022-08-11T05:50:08.183Z,25.72
2022-08-11T05:52:57.458Z,25.89
2022-08-11T05:55:52.379Z,25.85
2022-08-11T05:58:42.713Z,26.11
2022-08-11T06:01:14.453Z,26.41
2022-08-11T06:04:03.223Z,26.17
2022-08-11T06:06:31.253Z,26.31
2022-08-11T06:09:00.789Z,26.41
2022-08-11T06:11:44.470Z,25.85
2022-08-11T06:14:12.605Z,25.99
2022-08-11T06:16:41.847Z,26.09
2022-08-11T06:19:09.777Z,25.79
2022-08-11T06:21:37.899Z,25.75
2022-08-11T06:24:11.758Z,25.90
2022-08-11T06:26:55.183Z,25.99
2022-08-11T06:29:37.310Z,26.06
2022-08-11T06:32:06.260Z,25.85
2022-08-11T06:34:46.340Z,25.63
2022-08-11T06:37:42.440Z,26.10
2022-08-11T06:40:36.400Z,26.02
2022-08-11T06:43:18.340Z,25.74
2022-08-11T06:46:25.178Z,25.35
2022-08-11T06:48:59.543Z,25.00
2022-08-11T06:51:27.677Z,25.34
2022-08-11T06:54:04.938Z,25.75
2022-08-11T06:57:26.482Z,25.64
2022-08-11T07:00:03.699Z,25.28
2022-08-11T07:03:00.872Z,25.20
2022-08-11T07:05:43.863Z,24.00
2022-08-11T07:09:03.231Z,23.35
2022-08-11T07:12:14.242Z,23.02
2022-08-11T07:15:09.755Z,22.79
2022-08-11T07:17:50.009Z,22.86
2022-08-11T07:20:37.378Z,22.86
2022-08-11T07:23:27.527Z,22.84
2022-08-11T07:26:15.576Z,22.74
2022-08-11T07:28:59.213Z,22.79
2022-08-11T07:31:31.287Z,22.92
2022-08-11T07:34:18.545Z,22.96
2022-08-11T07:36:54.877Z,23.23
2022-08-11T07:39:33.315Z,23.27
2022-08-11T07:42:05.120Z,23.14
2022-08-11T07:44:55.040Z,23.27
2022-08-11T07:47:43.586Z,23.45
2022-08-11T07:50:29.687Z,23.51
2022-08-11T07:52:59.778Z,23.63
2022-08-11T07:55:50.941Z,23.79
2022-08-11T07:58:45.438Z,24.00
2022-08-11T08:01:40.351Z,23.90
2022-08-11T08:04:38.917Z,23.93
2022-08-11T08:07:24.714Z,24.07
2022-08-11T08:10:15.878Z,23.97
2022-08-11T08:13:01.347Z,23.88
2022-08-11T08:15:47.358Z,23.97
2022-08-11T08:18:27.033Z,23.91
2022-08-11T08:20:56.893Z,23.95
2022-08-11T08:23:36.784Z,24.16
2022-08-11T08:26:25.995Z,24.35
2022-08-11T08:28:55.130Z,24.41
2022-08-11T08:31:25.571Z,24.51
2022-08-11T08:33:52.572Z,24.62
2022-08-11T08:36:24.002Z,24.68
2022-08-11T08:38:54.266Z,24.81
2022-08-11T08:41:29.935Z,24.92
2022-08-11T08:44:27.341Z,25.02
2022-08-11T08:46:56.363Z,25.24
2022-08-11T08:49:28.796Z,25.36
2022-08-11T08:52:26.194Z,25.42
2022-08-11T08:54:54.159Z,25.51
2022-08-11T08:57:23.724Z,25.49
2022-08-11T08:59:52.040Z,25.64
2022-08-11T09:02:34.061Z,25.69
2022-08-11T09:05:03.664Z,25.88
2022-08-11T09:07:38.440Z,25.95
2022-08-11T09:10:07.423Z,26.10
2022-08-11T09:12:38.866Z,26.11
2022-08-11T09:15:09.328Z,26.09
2022-08-11T09:17:41.026Z,26.25
2022-08-11T09:20:17.373Z,26.25
2022-08-11T09:24:08.940Z,26.33
2022-08-11T09:26:12.536Z,26.41
2022-08-11T09:28:44.063Z,26.58
2022-08-11T09:31:14.660Z,26.71
2022-08-11T09:33:43.845Z,26.83
2022-08-11T09:36:34.068Z,26.72
2022-08-11T09:39:24.146Z,26.64
2022-08-11T09:42:00.925Z,26.65
2022-08-11T09:44:49.823Z,26.78
2022-08-11T09:47:23.671Z,26.88
2022-08-11T09:50:02.372Z,27.06
2022-08-11T09:52:33.029Z,27.06
2022-08-11T09:55:02.848Z,27.11
2022-08-11T09:57:48.249Z,27.29
2022-08-11T10:00:15.867Z,27.43
2022-08-11T10:02:48.911Z,27.24
2022-08-11T10:05:42.783Z,27.35
2022-08-11T10:08:16.252Z,27.31
2022-08-11T10:10:45.590Z,27.37
2022-08-11T10:14:31.646Z,27.43
2022-08-11T10:16:15.803Z,27.49
2022-08-11T10:18:51.817Z,27.77
2022-08-11T10:21:30.341Z,27.91
2022-08-11T10:24:19.507Z,28.11
2022-08-11T10:26:54.956Z,28.26
2022-08-11T10:29:56.551Z,28.22
2022-08-11T10:32:49.297Z,28.17
2022-08-11T10:35:28.338Z,28.24
2022-08-11T10:38:06.642Z,28.25
2022-08-11T10:41:07.049Z,28.36
2022-08-11T10:44:01.779Z,28.50
2022-08-11T10:46:42.348Z,28.69
2022-08-11T10:49:09.953Z,28.48
2022-08-11T10:51:57.657Z,28.53
2022-08-11T10:54:44.731Z,28.59
2022-08-11T10:57:30.498Z,28.76
2022-08-11T11:00:01.784Z,28.80
2022-08-11T11:02:29.689Z,28.99
2022-08-11T11:05:02.579Z,28.88
2022-08-11T11:08:27.979Z,28.86
2022-08-11T11:10:57.081Z,28.96
2022-08-11T11:13:53.247Z,28.84
2022-08-11T11:16:50.983Z,28.83
2022-08-11T11:19:25.500Z,28.90
2022-08-11T11:22:18.809Z,28.91
2022-08-11T11:25:01.100Z,29.12
2022-08-11T11:27:46.758Z,29.36
2022-08-11T11:30:15.766Z,29.39
2022-08-11T11:33:11.762Z,29.48
2022-08-11T11:35:49.663Z,29.66
2022-08-11T11:38:17.666Z,29.67
2022-08-11T11:41:05.102Z,29.60
2022-08-11T11:43:35.604Z,29.72
2022-08-11T11:46:03.019Z,29.69
2022-08-11T11:48:31.787Z,29.70
2022-08-11T11:51:01.491Z,29.64
2022-08-11T11:53:32.147Z,29.58
2022-08-11T11:56:00.017Z,29.65
2022-08-11T11:58:46.970Z,29.68
2022-08-11T12:01:19.885Z,29.76
2022-08-11T12:03:49.533Z,29.55
2022-08-11T12:06:18.145Z,29.76
2022-08-11T12:08:48.041Z,29.78
2022-08-11T12:11:34.924Z,29.90
2022-08-11T12:14:10.657Z,30.09
2022-08-11T12:16:44.970Z,30.10
2022-08-11T12:19:18.725Z,29.95
2022-08-11T12:22:04.807Z,30.10
2022-08-11T12:24:52.581Z,30.15
2022-08-11T12:27:25.306Z,30.14
2022-08-11T12:29:56.243Z,30.05
2022-08-11T12:32:32.151Z,29.95
2022-08-11T12:34:59.541Z,30.09
2022-08-11T12:37:35.502Z,30.20
2022-08-11T12:40:43.756Z,30.01
2022-08-11T12:43:39.517Z,30.01
2022-08-11T12:46:12.877Z,30.11
2022-08-11T12:49:04.288Z,30.17
2022-08-11T12:52:06.743Z,30.14
2022-08-11T12:54:51.900Z,30.24
2022-08-11T12:57:44.022Z,30.42
2022-08-11T13:00:32.400Z,30.40
2022-08-11T13:03:18.897Z,30.32
2022-08-11T13:05:48.294Z,30.47
2022-08-11T13:08:17.315Z,30.48
2022-08-11T13:11:04.616Z,30.35
2022-08-11T13:13:53.954Z,30.32
2022-08-11T13:16:23.750Z,30.19
2022-08-11T13:18:53.516Z,30.29
2022-08-11T13:21:22.018Z,30.44
2022-08-11T13:23:59.520Z,30.65
2022-08-11T13:26:47.274Z,30.79
2022-08-11T13:29:25.443Z,30.52
2022-08-11T13:31:57.312Z,30.59
2022-08-11T13:34:27.144Z,30.74
2022-08-11T13:36:55.794Z,30.87
2022-08-11T13:39:25.222Z,31.04
2022-08-11T13:42:01.267Z,30.92
2022-08-11T13:44:36.103Z,30.89
2022-08-11T13:47:15.189Z,30.91
2022-08-11T13:49:45.777Z,30.90
2022-08-11T13:52:19.507Z,30.98
2022-08-11T13:54:49.594Z,30.91
2022-08-11T13:58:08.105Z,30.76
2022-08-11T14:00:27.684Z,30.76
2022-08-11T14:03:05.887Z,30.85
2022-08-11T14:05:47.547Z,30.91
2022-08-11T14:08:37.542Z,30.97
2022-08-11T14:12:23.023Z,30.89
2022-08-11T14:14:23.027Z,30.83
2022-08-11T14:16:56.283Z,30.82
2022-08-11T14:19:27.428Z,31.00
2022-08-11T14:22:08.309Z,30.92
2022-08-11T14:24:41.049Z,30.99
2022-08-11T14:27:46.058Z,30.99
2022-08-11T14:30:04.901Z,31.02
2022-08-11T14:32:35.127Z,31.03
2022-08-11T14:35:21.786Z,30.96
2022-08-11T14:37:49.446Z,30.86
2022-08-11T14:40:37.540Z,30.95
2022-08-11T14:44:12.248Z,31.05
2022-08-11T14:49:00.276Z,31.23
2022-08-11T14:51:31.272Z,31.13
2022-08-11T14:54:19.109Z,31.18
2022-08-11T14:56:46.047Z,31.06
2022-08-11T14:59:13.445Z,31.04
2022-08-11T15:01:59.261Z,30.99
2022-08-11T15:04:34.835Z,30.86
2022-08-11T15:07:03.835Z,30.92
2022-08-11T15:09:30.946Z,30.88
2022-08-11T15:12:32.494Z,30.84
2022-08-11T15:15:19.955Z,30.93
2022-08-11T15:17:49.410Z,31.07
2022-08-11T15:20:36.459Z,31.10
2022-08-11T15:23:23.031Z,31.07
2022-08-11T15:25:59.512Z,31.09
2022-08-11T15:28:48.218Z,31.06
2022-08-11T15:31:40.846Z,31.00
2022-08-11T15:34:36.568Z,30.79
2022-08-11T15:37:29.553Z,30.81
2022-08-11T15:40:35.741Z,30.85
2022-08-11T15:43:29.383Z,30.92
2022-08-11T15:46:02.415Z,30.91
2022-08-11T15:48:36.254Z,30.87
2022-08-11T15:51:16.717Z,30.87
2022-08-11T15:53:56.550Z,30.90
2022-08-11T15:56:28.424Z,30.91
2022-08-11T15:59:41.917Z,30.86
2022-08-11T16:02:11.406Z,30.77
2022-08-11T16:04:45.735Z,30.73
2022-08-11T16:07:15.832Z,30.67
2022-08-11T16:09:47.676Z,30.68
2022-08-11T16:12:30.382Z,30.56
2022-08-11T16:15:25.731Z,30.49
2022-08-11T16:17:57.556Z,30.42
2022-08-11T16:21:00.486Z,30.38
2022-08-11T16:23:29.320Z,30.32
2022-08-11T16:27:02.158Z,30.22
2022-08-11T16:28:44.600Z,30.14
2022-08-11T16:31:12.800Z,30.03
2022-08-11T16:33:49.848Z,30.00
2022-08-11T16:36:43.878Z,29.96
2022-08-11T16:39:20.134Z,29.90
2022-08-11T16:43:06.101Z,29.86
2022-08-11T16:45:35.050Z,29.88
2022-08-11T16:48:36.244Z,29.82
2022-08-11T16:50:50.952Z,29.77
2022-08-11T16:53:17.977Z,29.74
2022-08-11T16:55:52.586Z,29.69
2022-08-11T16:58:40.410Z,29.64
2022-08-11T17:01:09.239Z,29.62
2022-08-11T17:07:23.588Z,29.54
2022-08-11T17:10:31.680Z,29.50
2022-08-11T17:13:09.759Z,29.47
2022-08-11T17:16:10.305Z,29.42
2022-08-11T17:19:12.792Z,29.36
2022-08-11T17:22:02.899Z,29.32
2022-08-11T17:24:31.564Z,29.29
2022-08-11T17:27:00.118Z,29.24
2022-08-11T17:29:34.379Z,29.18
2022-08-11T17:33:00.523Z,29.11
2022-08-11T17:35:32.906Z,29.06
2022-08-11T17:38:13.118Z,29.04
2022-08-11T17:41:03.576Z,28.98
2022-08-11T17:43:49.834Z,28.96
2022-08-11T17:46:35.793Z,28.90
2022-08-11T17:49:04.883Z,28.88
2022-08-11T17:51:50.363Z,28.83
2022-08-11T17:54:36.559Z,28.80
2022-08-11T17:57:22.927Z,28.73
2022-08-11T17:59:52.879Z,28.71
2022-08-11T18:02:41.169Z,28.64
2022-08-11T18:05:13.010Z,28.59
2022-08-11T18:08:02.499Z,28.54
2022-08-11T18:10:50.419Z,28.49
2022-08-11T18:13:41.912Z,28.45
2022-08-11T18:16:27.902Z,28.36
2022-08-11T18:19:13.537Z,28.30
2022-08-11T18:22:14.959Z,28.22
2022-08-11T18:25:11.258Z,28.12
2022-08-11T18:28:01.369Z,28.06
2022-08-11T18:30:50.594Z,28.02
2022-08-11T18:34:05.880Z,27.95
2022-08-11T18:36:56.738Z,27.84
2022-08-11T18:39:46.173Z,27.77
2022-08-11T18:42:44.048Z,27.69
2022-08-11T18:45:35.798Z,27.61
2022-08-11T18:48:37.478Z,27.56
2022-08-11T18:51:30.824Z,27.49
2022-08-11T18:54:23.112Z,27.42
2022-08-11T18:57:08.444Z,27.37
2022-08-11T18:59:57.596Z,27.32
2022-08-11T19:02:49.598Z,27.19
2022-08-11T19:06:36.108Z,27.13
2022-08-11T19:08:48.979Z,27.07
2022-08-11T19:11:42.826Z,27.01
2022-08-11T19:14:36.903Z,26.88
2022-08-11T19:17:43.285Z,26.79
2022-08-11T19:20:38.222Z,26.69
2022-08-11T19:23:26.280Z,26.63
2022-08-11T19:26:12.464Z,26.54
2022-08-11T19:29:00.340Z,26.48
2022-08-11T19:31:49.096Z,26.41
2022-08-11T19:34:42.292Z,26.32
2022-08-11T19:37:29.445Z,26.27
2022-08-11T19:40:25.001Z,26.18
2022-08-11T19:43:23.398Z,26.08
2022-08-11T19:46:17.202Z,25.98
2022-08-11T19:49:04.953Z,25.93
2022-08-11T19:51:55.507Z,25.85
2022-08-11T19:54:50.336Z,25.81
2022-08-11T19:57:40.118Z,25.73
2022-08-11T20:00:31.413Z,25.66
2022-08-11T20:03:25.571Z,25.59
2022-08-11T20:06:13.236Z,25.54
2022-08-11T20:09:01.086Z,25.48
2022-08-11T20:11:51.378Z,25.42
2022-08-11T20:14:40.026Z,25.35
2022-08-11T20:17:31.731Z,25.30
2022-08-11T20:20:22.689Z,25.24
2022-08-11T20:23:13.033Z,25.17
2022-08-11T20:26:13.946Z,25.13
2022-08-11T20:29:02.393Z,25.04
2022-08-11T20:31:48.619Z,24.96
2022-08-11T20:34:35.640Z,24.89
2022-08-11T20:37:23.295Z,24.85
2022-08-11T20:40:10.047Z,24.79
2022-08-11T20:42:56.410Z,24.72
2022-08-11T20:45:53.502Z,24.65
2022-08-11T20:48:47.368Z,24.59
2022-08-11T20:51:38.774Z,24.54
2022-08-11T20:54:43.077Z,24.48
2022-08-11T20:57:58.980Z,24.45
2022-08-11T21:00:48.020Z,24.43
2022-08-11T21:03:36.455Z,24.35
2022-08-11T21:06:34.613Z,24.29
2022-08-11T21:09:58.106Z,24.19
2022-08-11T21:12:31.605Z,24.10
2022-08-11T21:15:38.945Z,24.03
2022-08-11T21:18:27.549Z,23.94
2022-08-11T21:21:18.420Z,23.87
2022-08-11T21:24:06.652Z,23.84
2022-08-11T21:27:01.537Z,23.77
2022-08-11T21:29:51.297Z,23.71
2022-08-11T21:32:39.919Z,23.67
2022-08-11T21:35:27.742Z,23.61
2022-08-11T21:38:14.912Z,23.55
2022-08-11T21:41:01.583Z,23.48
2022-08-11T21:43:49.915Z,23.44
2022-08-11T21:49:39.092Z,23.28
2022-08-11T21:52:24.986Z,23.23
2022-08-11T21:55:11.221Z,23.19
2022-08-11T21:57:58.737Z,23.15
2022-08-11T22:00:49.824Z,23.11
2022-08-11T22:03:41.150Z,23.05
2022-08-11T22:06:36.769Z,22.97
2022-08-11T22:09:25.740Z,22.93
2022-08-11T22:12:34.017Z,22.88
2022-08-11T22:15:23.318Z,22.84
2022-08-11T22:18:09.471Z,22.77
2022-08-11T22:20:56.220Z,22.72
2022-08-11T22:23:42.260Z,22.67
2022-08-11T22:26:28.107Z,22.64
2022-08-11T22:29:18.609Z,22.59
2022-08-11T22:32:27.203Z,22.54
2022-08-11T22:35:15.571Z,22.49
2022-08-11T22:38:05.742Z,22.43
2022-08-11T22:40:52.366Z,22.38
2022-08-11T22:43:43.435Z,22.33
2022-08-11T22:46:29.683Z,22.30
2022-08-11T22:49:17.492Z,22.25
2022-08-11T22:52:03.852Z,22.23
2022-08-11T22:54:50.738Z,22.23
2022-08-11T22:57:37.127Z,22.19
2022-08-11T23:00:24.878Z,22.18
2022-08-11T23:03:37.266Z,22.13
2022-08-11T23:06:28.170Z,22.07
2022-08-11T23:09:15.360Z,22.03
2022-08-11T23:12:06.846Z,21.99
2022-08-11T23:14:53.908Z,21.96
2022-08-11T23:17:39.031Z,21.93
2022-08-11T23:20:30.263Z,21.88
2022-08-11T23:23:32.669Z,21.84
2022-08-11T23:26:19.629Z,21.81
2022-08-11T23:29:04.939Z,21.77
2022-08-11T23:31:53.647Z,21.74
2022-08-11T23:35:04.324Z,21.69
2022-08-11T23:38:00.252Z,21.62
2022-08-11T23:40:46.692Z,21.60
2022-08-11T23:43:42.607Z,21.53
2022-08-11T23:46:28.790Z,21.49
2022-08-11T23:49:25.650Z,21.47
2022-08-11T23:52:15.674Z,21.39
2022-08-11T23:55:12.741Z,21.35
2022-08-11T23:57:58.225Z,21.35
